createdAt,value
2023-06-18T00:02:03.814Z,5.50
2023-06-18T00:04:35.152Z,5.90
2023-06-18T00:07:06.702Z,5.83
2023-06-18T00:09:38.296Z,5.57
2023-06-18T00:12:09.973Z,6.80
2023-06-18T00:14:41.355Z,6.90
2023-06-18T00:17:12.752Z,6.80
2023-06-18T00:19:44.070Z,6.00
2023-06-18T00:22:16.436Z,6.40
2023-06-18T00:24:47.768Z,6.80
2023-06-18T00:27:21.186Z,6.53
2023-06-18T00:29:53.036Z,7.30
2023-06-18T00:32:24.383Z,6.87
2023-06-18T00:34:55.710Z,6.37
2023-06-18T00:37:28.827Z,6.77
2023-06-18T00:40:00.231Z,5.73
2023-06-18T00:42:31.651Z,5.90
2023-06-18T00:45:04.382Z,5.90
2023-06-18T00:47:45.513Z,5.67
2023-06-18T00:50:18.615Z,5.33
2023-06-18T00:52:50.997Z,5.47
2023-06-18T00:55:22.840Z,5.83
2023-06-18T00:58:00.788Z,5.03
2023-06-18T01:00:35.566Z,4.93
2023-06-18T01:03:19.082Z,5.63
2023-06-18T01:05:55.199Z,5.77
2023-06-18T01:08:29.182Z,5.93
2023-06-18T01:11:03.255Z,6.33
2023-06-18T01:13:37.684Z,5.70
2023-06-18T01:16:09.933Z,6.10
2023-06-18T01:18:46.434Z,6.33
2023-06-18T01:21:21.590Z,5.83
2023-06-18T01:23:54.050Z,6.37
2023-06-18T01:26:27.542Z,6.07
2023-06-18T01:29:00.134Z,5.83
2023-06-18T01:31:40.234Z,5.30
2023-06-18T01:34:11.534Z,5.73
2023-06-18T01:37:25.927Z,5.33
2023-06-18T01:40:32.711Z,5.03
2023-06-18T01:43:22.308Z,5.38
2023-06-18T01:45:58.881Z,4.83
2023-06-18T01:48:36.595Z,5.67
2023-06-18T01:51:08.720Z,5.43
2023-06-18T01:53:41.948Z,6.70
2023-06-18T01:56:14.473Z,6.60
2023-06-18T01:58:46.084Z,7.07
2023-06-18T02:01:18.053Z,6.87
2023-06-18T02:03:49.582Z,6.93
2023-06-18T02:06:21.138Z,7.33
2023-06-18T02:08:52.516Z,8.13
2023-06-18T02:11:24.436Z,6.50
2023-06-18T02:13:55.785Z,7.40
2023-06-18T02:16:27.257Z,7.53
2023-06-18T02:18:58.697Z,7.77
2023-06-18T02:21:30.127Z,6.90
2023-06-18T02:24:01.475Z,7.30
2023-06-18T02:26:32.889Z,7.17
2023-06-18T02:29:04.273Z,7.03
2023-06-18T02:31:36.036Z,7.90
2023-06-18T02:34:07.408Z,7.13
2023-06-18T02:36:39.905Z,6.50
2023-06-18T02:39:11.497Z,7.37
2023-06-18T02:41:42.852Z,6.87
2023-06-18T02:44:14.257Z,6.80
2023-06-18T02:46:45.587Z,6.97
2023-06-18T02:49:16.994Z,6.80
2023-06-18T02:51:49.184Z,7.67
2023-06-18T02:54:21.393Z,7.97
2023-06-18T02:56:52.766Z,7.90
2023-06-18T02:59:24.249Z,6.70
2023-06-18T03:01:55.612Z,6.57
2023-06-18T03:04:26.945Z,7.77
2023-06-18T03:07:01.747Z,6.93
2023-06-18T03:09:33.061Z,6.60
2023-06-18T03:12:05.106Z,7.00
2023-06-18T03:14:36.454Z,6.37
2023-06-18T03:17:07.894Z,8.03
2023-06-18T03:19:39.511Z,5.77
2023-06-18T03:22:11.262Z,6.90
2023-06-18T03:24:42.808Z,7.03
2023-06-18T03:27:14.243Z,6.77
2023-06-18T03:29:46.110Z,7.10
2023-06-18T03:32:17.602Z,6.77
2023-06-18T03:34:49.758Z,7.37
2023-06-18T03:37:21.624Z,6.73
2023-06-18T03:39:52.989Z,7.17
2023-06-18T03:42:25.023Z,7.37
2023-06-18T03:44:56.384Z,7.60
2023-06-18T03:47:27.857Z,7.63
2023-06-18T03:49:59.277Z,7.77
2023-06-18T03:52:30.654Z,7.80
2023-06-18T03:55:02.211Z,6.70
2023-06-18T03:57:33.601Z,6.77
2023-06-18T04:00:10.060Z,6.87
2023-06-18T04:02:41.969Z,6.90
2023-06-18T04:05:13.544Z,7.07
2023-06-18T04:07:44.916Z,6.83
2023-06-18T04:10:16.263Z,8.13
2023-06-18T04:12:47.591Z,6.53
2023-06-18T04:15:18.950Z,8.03
2023-06-18T04:17:50.348Z,7.30
2023-06-18T04:20:22.253Z,7.03
2023-06-18T04:22:53.740Z,7.17
2023-06-18T04:25:25.077Z,6.97
2023-06-18T04:27:56.873Z,7.00
2023-06-18T04:30:28.277Z,7.87
2023-06-18T04:32:59.644Z,7.97
2023-06-18T04:35:31.625Z,7.97
2023-06-18T04:38:02.975Z,7.53
2023-06-18T04:40:34.325Z,9.17
2023-06-18T04:43:05.965Z,8.67
2023-06-18T04:45:38.498Z,8.90
2023-06-18T04:48:10.177Z,8.63
2023-06-18T04:50:42.340Z,9.73
2023-06-18T04:53:13.648Z,8.10
2023-06-18T04:55:45.138Z,8.57
2023-06-18T04:58:16.561Z,8.43
2023-06-18T05:00:47.983Z,8.30
2023-06-18T05:03:19.463Z,7.67
2023-06-18T05:05:50.974Z,7.27
2023-06-18T05:08:22.443Z,7.83
2023-06-18T05:10:53.835Z,8.80
2023-06-18T05:13:25.170Z,8.27
2023-06-18T05:15:56.518Z,7.93
2023-06-18T05:18:27.850Z,7.87
2023-06-18T05:20:59.188Z,7.10
2023-06-18T05:23:30.661Z,7.93
2023-06-18T05:26:02.150Z,8.30
2023-06-18T05:28:33.479Z,9.07
2023-06-18T05:31:04.810Z,8.63
2023-06-18T05:33:36.157Z,7.77
2023-06-18T05:36:07.751Z,8.53
2023-06-18T05:38:39.156Z,8.33
2023-06-18T05:41:10.579Z,8.20
2023-06-18T05:43:41.884Z,7.63
2023-06-18T05:46:13.301Z,7.27
2023-06-18T05:48:44.665Z,6.30
2023-06-18T05:51:16.657Z,7.30
2023-06-18T05:53:48.009Z,6.85
2023-06-18T05:56:19.337Z,6.82
2023-06-18T05:58:50.658Z,7.13
2023-06-18T06:01:22.050Z,5.80
2023-06-18T06:03:53.524Z,4.63
2023-06-18T06:06:24.897Z,4.75
2023-06-18T06:08:56.524Z,5.40
2023-06-18T06:11:27.903Z,5.45
2023-06-18T06:13:59.776Z,5.28
2023-06-18T06:16:31.223Z,4.95
2023-06-18T06:19:02.690Z,4.70
2023-06-18T06:21:34.994Z,5.43
2023-06-18T06:24:07.196Z,4.75
2023-06-18T06:26:38.595Z,4.85
2023-06-18T06:29:10.063Z,4.43
2023-06-18T06:31:41.641Z,5.15
2023-06-18T06:34:12.951Z,4.82
2023-06-18T06:36:44.465Z,5.30
2023-06-18T06:39:17.590Z,4.70
2023-06-18T06:41:48.971Z,4.93
2023-06-18T06:44:20.461Z,4.20
2023-06-18T06:46:51.837Z,4.97
2023-06-18T06:49:23.153Z,4.25
2023-06-18T06:51:56.469Z,4.05
2023-06-18T06:54:27.888Z,5.07
2023-06-18T06:56:59.249Z,4.45
2023-06-18T06:59:31.824Z,4.10
2023-06-18T07:02:03.419Z,4.18
2023-06-18T07:04:34.781Z,4.35
2023-06-18T07:07:06.156Z,4.07
2023-06-18T07:09:37.469Z,4.55
2023-06-18T07:12:09.146Z,3.22
2023-06-18T07:14:40.671Z,4.35
2023-06-18T07:17:12.107Z,4.00
2023-06-18T07:19:43.470Z,4.90
2023-06-18T07:22:14.801Z,5.40
2023-06-18T07:24:46.122Z,4.60
2023-06-18T07:27:17.540Z,4.05
2023-06-18T07:29:48.876Z,4.05
2023-06-18T07:32:20.248Z,3.78
2023-06-18T07:34:51.725Z,4.55
2023-06-18T07:37:23.054Z,3.95
2023-06-18T07:39:55.992Z,3.80
2023-06-18T07:42:27.358Z,4.32
2023-06-18T07:44:58.787Z,4.03
2023-06-18T07:47:30.144Z,4.03
2023-06-18T07:50:03.018Z,3.47
2023-06-18T07:52:35.099Z,2.80
2023-06-18T07:55:07.038Z,3.10
2023-06-18T07:57:39.098Z,3.70
2023-06-18T08:00:11.368Z,3.95
2023-06-18T08:02:42.802Z,3.47
2023-06-18T08:05:14.256Z,3.60
2023-06-18T08:07:45.734Z,3.90
2023-06-18T08:10:17.122Z,3.35
2023-06-18T08:12:48.475Z,3.60
2023-06-18T08:15:19.822Z,3.67
2023-06-18T08:17:51.196Z,3.40
2023-06-18T08:20:22.720Z,3.17
2023-06-18T08:22:54.237Z,3.80
2023-06-18T08:25:25.583Z,3.95
2023-06-18T08:27:57.595Z,3.20
2023-06-18T08:30:29.062Z,3.13
2023-06-18T08:33:00.567Z,3.28
2023-06-18T08:35:32.017Z,2.80
2023-06-18T08:38:04.320Z,2.67
2023-06-18T08:40:49.446Z,2.13
2023-06-18T08:43:27.241Z,2.47
2023-06-18T08:46:04.751Z,3.13
2023-06-18T08:48:43.538Z,2.72
2023-06-18T08:51:17.147Z,2.75
2023-06-18T08:53:55.153Z,2.83
2023-06-18T08:56:28.334Z,2.72
2023-06-18T08:59:02.266Z,2.95
2023-06-18T09:01:33.875Z,3.15
2023-06-18T09:04:06.363Z,3.33
2023-06-18T09:06:38.069Z,3.67
2023-06-18T09:09:09.493Z,2.85
2023-06-18T09:11:40.879Z,3.10
2023-06-18T09:14:12.285Z,2.85
2023-06-18T09:16:44.237Z,2.97
2023-06-18T09:19:17.205Z,2.45
2023-06-18T09:21:48.721Z,2.75
2023-06-18T09:24:24.472Z,2.85
2023-06-18T09:27:04.227Z,2.72
2023-06-18T09:29:41.628Z,3.35
2023-06-18T09:32:15.198Z,2.70
2023-06-18T09:34:46.677Z,2.88
2023-06-18T09:37:20.492Z,2.70
2023-06-18T09:39:54.625Z,2.70
2023-06-18T09:42:30.867Z,2.80
2023-06-18T09:45:02.292Z,3.28
2023-06-18T09:47:33.652Z,2.83
2023-06-18T09:50:06.712Z,3.08
2023-06-18T09:52:46.074Z,2.92
2023-06-18T09:55:32.327Z,3.08
2023-06-18T09:58:03.776Z,2.97
2023-06-18T10:00:35.113Z,3.05
2023-06-18T10:03:08.477Z,2.70
2023-06-18T10:05:40.393Z,3.13
2023-06-18T10:08:12.010Z,2.83
2023-06-18T10:10:43.922Z,2.72
2023-06-18T10:13:15.381Z,2.97
2023-06-18T10:15:46.965Z,2.78
2023-06-18T10:18:24.056Z,3.28
2023-06-18T10:21:01.901Z,2.90
2023-06-18T10:23:34.373Z,2.72
2023-06-18T10:26:08.994Z,2.70
2023-06-18T10:28:41.625Z,3.22
2023-06-18T10:31:13.218Z,3.03
2023-06-18T10:33:46.162Z,2.92
2023-06-18T10:36:17.862Z,2.70
2023-06-18T10:38:49.955Z,3.05
2023-06-18T10:41:21.659Z,2.80
2023-06-18T10:43:55.637Z,2.45
2023-06-18T10:46:27.681Z,2.65
2023-06-18T10:49:16.143Z,2.78
2023-06-18T10:52:15.246Z,2.42
2023-06-18T10:54:46.573Z,2.35
2023-06-18T10:57:18.057Z,2.08
2023-06-18T10:59:50.962Z,2.40
2023-06-18T11:02:35.106Z,2.70
2023-06-18T11:05:06.766Z,2.17
2023-06-18T11:07:40.897Z,2.33
2023-06-18T11:10:12.438Z,2.55
2023-06-18T11:12:44.867Z,3.22
2023-06-18T11:15:18.394Z,2.58
2023-06-18T11:17:55.232Z,2.70
2023-06-18T11:20:27.572Z,2.50
2023-06-18T11:23:01.247Z,2.55
2023-06-18T11:25:32.725Z,2.58
2023-06-18T11:28:06.070Z,2.70
2023-06-18T11:30:38.481Z,2.15
2023-06-18T11:33:09.872Z,2.80
2023-06-18T11:35:41.332Z,2.67
2023-06-18T11:38:12.910Z,2.53
2023-06-18T11:40:55.778Z,3.00
2023-06-18T11:43:27.175Z,2.55
2023-06-18T11:45:58.951Z,2.78
2023-06-18T11:48:34.161Z,2.92
2023-06-18T11:51:05.506Z,2.88
2023-06-18T11:53:36.868Z,2.33
2023-06-18T11:56:08.334Z,2.17
2023-06-18T11:58:39.974Z,2.38
2023-06-18T12:01:17.274Z,2.25
2023-06-18T12:16:36.282Z,2.30
2023-06-18T12:19:16.075Z,2.63
2023-06-18T12:21:53.971Z,3.00
2023-06-18T12:24:29.834Z,2.20
2023-06-18T12:27:05.575Z,2.55
2023-06-18T12:29:41.630Z,2.30
2023-06-18T12:32:13.562Z,2.60
2023-06-18T12:34:44.893Z,2.72
2023-06-18T12:37:16.249Z,2.53
2023-06-18T12:40:10.924Z,3.08
2023-06-18T12:42:43.399Z,2.65
2023-06-18T12:45:25.735Z,2.50
2023-06-18T12:47:58.598Z,2.30
2023-06-18T12:50:39.082Z,2.20
2023-06-18T12:53:19.146Z,2.42
2023-06-18T12:55:54.319Z,2.17
2023-06-18T12:58:28.294Z,2.42
2023-06-18T13:01:00.400Z,2.10
2023-06-18T13:03:32.489Z,2.30
2023-06-18T13:06:04.037Z,2.17
2023-06-18T13:08:36.061Z,2.70
2023-06-18T13:11:07.406Z,2.30
2023-06-18T13:13:38.816Z,2.03
2023-06-18T13:16:10.581Z,2.45
2023-06-18T13:18:42.528Z,2.15
2023-06-18T13:21:14.215Z,2.90
2023-06-18T13:23:46.270Z,2.75
2023-06-18T13:26:19.797Z,2.60
2023-06-18T13:28:51.548Z,2.63
2023-06-18T13:31:22.918Z,2.42
2023-06-18T13:33:54.292Z,2.28
2023-06-18T13:36:25.755Z,2.20
2023-06-18T13:38:57.418Z,2.30
2023-06-18T13:41:28.757Z,2.60
2023-06-18T13:44:00.139Z,2.50
2023-06-18T13:46:31.785Z,2.45
2023-06-18T13:49:04.143Z,2.28
2023-06-18T13:51:35.565Z,1.95
2023-06-18T13:54:07.261Z,2.35
2023-06-18T13:56:38.696Z,2.20
2023-06-18T13:59:10.125Z,2.38
2023-06-18T14:01:42.131Z,2.80
2023-06-18T14:04:13.611Z,2.30
2023-06-18T14:06:45.563Z,2.45
2023-06-18T14:09:19.258Z,2.25
2023-06-18T14:11:51.551Z,2.40
2023-06-18T14:14:23.476Z,2.70
2023-06-18T14:16:54.797Z,2.65
2023-06-18T14:19:26.232Z,2.70
2023-06-18T14:21:58.656Z,2.22
2023-06-18T14:24:30.249Z,2.60
2023-06-18T14:27:03.298Z,2.20
2023-06-18T14:29:34.687Z,2.88
2023-06-18T14:32:06.083Z,2.60
2023-06-18T14:34:37.402Z,2.40
2023-06-18T14:37:09.297Z,2.63
2023-06-18T14:39:40.759Z,2.60
2023-06-18T14:42:12.096Z,2.50
2023-06-18T14:44:43.822Z,2.67
2023-06-18T14:47:15.162Z,2.40
2023-06-18T14:49:54.021Z,2.03
2023-06-18T14:52:25.349Z,2.65
2023-06-18T14:54:56.675Z,2.58
2023-06-18T14:57:28.116Z,2.55
2023-06-18T14:59:59.611Z,2.42
2023-06-18T15:02:30.980Z,2.40
2023-06-18T15:05:02.702Z,2.83
2023-06-18T15:07:34.570Z,2.42
2023-06-18T15:10:06.371Z,2.70
2023-06-18T15:12:37.776Z,2.40
2023-06-18T15:15:09.569Z,2.20
2023-06-18T15:17:41.370Z,2.80
2023-06-18T15:20:14.937Z,2.85
2023-06-18T15:22:46.264Z,2.83
2023-06-18T15:25:17.795Z,2.33
2023-06-18T15:27:49.108Z,2.67
2023-06-18T15:30:20.554Z,2.42
2023-06-18T15:32:51.980Z,2.65
2023-06-18T15:35:23.549Z,2.75
2023-06-18T15:38:01.004Z,2.70
2023-06-18T15:40:32.354Z,2.47
2023-06-18T15:43:03.676Z,2.60
2023-06-18T15:45:35.010Z,2.80
2023-06-18T15:48:06.412Z,2.35
2023-06-18T15:50:37.770Z,2.65
2023-06-18T15:53:09.133Z,2.75
2023-06-18T15:55:40.669Z,2.58
2023-06-18T15:58:12.001Z,2.78
2023-06-18T16:00:43.358Z,3.33
2023-06-18T16:03:14.748Z,2.60
2023-06-18T16:05:46.312Z,2.50
2023-06-18T16:08:17.709Z,2.65
2023-06-18T16:10:49.263Z,2.70
2023-06-18T16:13:22.240Z,2.50
2023-06-18T16:15:53.633Z,2.38
2023-06-18T16:18:24.987Z,2.63
2023-06-18T16:20:56.530Z,2.50
2023-06-18T16:23:27.851Z,2.45
2023-06-18T16:25:59.632Z,2.72
2023-06-18T16:28:32.420Z,2.60
2023-06-18T16:31:03.753Z,2.72
2023-06-18T16:33:35.088Z,2.80
2023-06-18T16:36:06.677Z,2.70
2023-06-18T16:38:38.304Z,2.33
2023-06-18T16:41:09.893Z,2.65
2023-06-18T16:43:41.280Z,2.47
2023-06-18T16:46:12.811Z,2.70
2023-06-18T16:48:44.310Z,2.50
2023-06-18T16:51:15.744Z,2.67
2023-06-18T16:53:47.062Z,2.70
2023-06-18T16:56:18.374Z,2.63
2023-06-18T16:58:50.538Z,2.53
2023-06-18T17:01:22.014Z,2.58
2023-06-18T17:03:53.605Z,2.75
2023-06-18T17:06:25.054Z,2.78
2023-06-18T17:08:56.353Z,2.90
2023-06-18T17:11:28.995Z,3.10
2023-06-18T17:14:01.526Z,3.28
2023-06-18T17:16:32.985Z,2.83
2023-06-18T17:19:04.316Z,3.00
2023-06-18T17:21:36.160Z,2.85
2023-06-18T17:24:07.602Z,2.80
2023-06-18T17:26:39.010Z,3.30
2023-06-18T17:29:10.797Z,2.70
2023-06-18T17:31:42.164Z,2.50
2023-06-18T17:34:15.585Z,3.13
2023-06-18T17:36:48.103Z,3.20
2023-06-18T17:39:20.958Z,3.00
2023-06-18T17:41:52.520Z,3.08
2023-06-18T17:44:23.961Z,2.75
2023-06-18T17:46:55.374Z,3.08
2023-06-18T17:49:27.123Z,2.58
2023-06-18T17:51:58.528Z,3.50
2023-06-18T17:54:29.893Z,3.13
2023-06-18T17:57:01.245Z,2.90
2023-06-18T17:59:32.592Z,3.55
2023-06-18T18:02:04.293Z,3.17
2023-06-18T18:04:37.368Z,3.35
2023-06-18T18:07:08.793Z,3.50
2023-06-18T18:09:40.174Z,2.97
2023-06-18T18:12:11.573Z,3.60
2023-06-18T18:14:43.251Z,3.20
2023-06-18T18:17:14.839Z,3.00
2023-06-18T18:19:46.175Z,2.75
2023-06-18T18:22:19.211Z,2.80
2023-06-18T18:24:50.672Z,3.20
2023-06-18T18:27:22.013Z,3.33
2023-06-18T18:29:53.425Z,3.00
2023-06-18T18:32:25.608Z,2.72
2023-06-18T18:34:57.081Z,3.53
2023-06-18T18:37:28.444Z,2.95
2023-06-18T18:39:59.832Z,3.05
2023-06-18T18:42:31.237Z,2.90
2023-06-18T18:45:03.714Z,3.47
2023-06-18T18:47:35.053Z,3.50
2023-06-18T18:50:06.889Z,3.45
2023-06-18T18:52:38.517Z,2.97
2023-06-18T18:55:09.975Z,2.85
2023-06-18T18:57:41.370Z,3.60
2023-06-18T19:00:14.040Z,3.22
2023-06-18T19:02:45.640Z,3.10
2023-06-18T19:05:17.055Z,2.90
2023-06-18T19:07:50.467Z,3.35
2023-06-18T19:10:22.614Z,3.22
2023-06-18T19:12:54.311Z,3.30
2023-06-18T19:15:25.675Z,3.20
2023-06-18T19:17:57.084Z,3.47
2023-06-18T19:20:28.511Z,3.67
2023-06-18T19:22:59.915Z,4.05
2023-06-18T19:25:34.104Z,2.85
2023-06-18T19:28:05.467Z,3.30
2023-06-18T19:30:43.045Z,3.28
2023-06-18T19:33:14.578Z,3.33
2023-06-18T19:35:45.999Z,3.35
2023-06-18T19:38:17.452Z,3.53
2023-06-18T19:40:49.810Z,3.70
2023-06-18T19:43:22.532Z,3.63
2023-06-18T19:45:53.946Z,3.42
2023-06-18T19:48:25.303Z,4.10
2023-06-18T19:50:56.659Z,3.30
2023-06-18T19:53:28.100Z,3.72
2023-06-18T19:55:59.883Z,3.55
2023-06-18T19:58:31.278Z,3.88
2023-06-18T20:01:02.621Z,4.38
2023-06-18T20:03:34.974Z,3.22
2023-06-18T20:06:06.677Z,4.07
2023-06-18T20:08:38.113Z,3.15
2023-06-18T20:11:09.547Z,4.05
2023-06-18T20:13:40.863Z,3.92
2023-06-18T20:16:12.535Z,3.42
2023-06-18T20:18:43.937Z,3.60
2023-06-18T20:21:15.293Z,3.95
2023-06-18T20:23:46.619Z,4.00
2023-06-18T20:26:18.009Z,3.97
2023-06-18T20:28:49.330Z,3.78
2023-06-18T20:31:20.893Z,4.13
2023-06-18T20:33:52.284Z,3.45
2023-06-18T20:36:23.617Z,4.10
2023-06-18T20:38:54.967Z,3.75
2023-06-18T20:41:26.290Z,3.65
2023-06-18T20:43:57.647Z,4.00
2023-06-18T20:46:29.062Z,4.10
2023-06-18T20:49:01.319Z,3.75
2023-06-18T20:51:32.662Z,3.72
2023-06-18T20:54:04.105Z,4.43
2023-06-18T20:56:35.511Z,4.20
2023-06-18T20:59:06.823Z,4.38
2023-06-18T21:01:38.363Z,4.00
2023-06-18T21:04:10.067Z,4.20
2023-06-18T21:06:41.399Z,4.05
2023-06-18T21:09:12.793Z,3.72
2023-06-18T21:11:44.121Z,4.28
2023-06-18T21:14:15.950Z,4.35
2023-06-18T21:16:47.336Z,4.22
2023-06-18T21:19:20.600Z,3.88
2023-06-18T21:21:51.971Z,4.40
2023-06-18T21:24:23.312Z,4.07
2023-06-18T21:26:54.697Z,4.40
2023-06-18T21:29:26.603Z,4.18
2023-06-18T21:31:59.234Z,4.15
2023-06-18T21:34:30.551Z,4.05
2023-06-18T21:37:02.200Z,4.15
2023-06-18T21:39:33.602Z,4.40
2023-06-18T21:42:05.283Z,4.20
2023-06-18T21:44:36.816Z,4.00
2023-06-18T21:47:08.203Z,4.00
2023-06-18T21:49:39.777Z,4.72
2023-06-18T21:52:11.079Z,4.38
2023-06-18T21:54:42.417Z,4.30
2023-06-18T21:57:13.803Z,4.22
2023-06-18T21:59:45.122Z,4.55
2023-06-18T22:02:16.538Z,3.70
2023-06-18T22:04:48.022Z,4.07
2023-06-18T22:07:19.443Z,4.18
2023-06-18T22:09:50.833Z,4.35
2023-06-18T22:12:22.728Z,3.83
2023-06-18T22:14:54.072Z,4.30
2023-06-18T22:17:26.797Z,4.15
2023-06-18T22:19:58.205Z,4.22
2023-06-18T22:22:29.530Z,4.65
2023-06-18T22:25:00.849Z,4.35
2023-06-18T22:27:32.207Z,4.90
2023-06-18T22:30:04.365Z,4.15
2023-06-18T22:32:35.783Z,4.53
2023-06-18T22:35:08.226Z,4.38
2023-06-18T22:37:39.560Z,4.10
2023-06-18T22:40:11.326Z,4.70
2023-06-18T22:42:42.648Z,4.18
2023-06-18T22:45:13.984Z,4.10
2023-06-18T22:47:45.322Z,3.97
2023-06-18T22:50:16.820Z,4.72
2023-06-18T22:52:48.186Z,5.00
2023-06-18T22:55:19.514Z,4.90
2023-06-18T22:57:50.961Z,4.10
2023-06-18T23:00:22.553Z,4.15
2023-06-18T23:02:54.193Z,3.88
2023-06-18T23:05:25.617Z,4.90
2023-06-18T23:07:57.123Z,4.30
2023-06-18T23:10:28.470Z,4.90
2023-06-18T23:12:59.867Z,4.75
2023-06-18T23:15:31.311Z,4.18
2023-06-18T23:18:02.910Z,5.53
2023-06-18T23:20:35.555Z,4.57
2023-06-18T23:23:06.968Z,4.45
2023-06-18T23:25:38.354Z,4.20
2023-06-18T23:28:09.683Z,4.20
2023-06-18T23:30:41.075Z,4.53
2023-06-18T23:33:12.529Z,4.47
2023-06-18T23:35:44.432Z,4.45
2023-06-18T23:38:15.851Z,4.63
2023-06-18T23:40:47.240Z,5.07
2023-06-18T23:43:19.626Z,5.00
2023-06-18T23:45:51.086Z,4.20
2023-06-18T23:48:22.515Z,4.43
2023-06-18T23:50:56.165Z,4.50
2023-06-18T23:53:27.501Z,4.78
2023-06-18T23:55:58.901Z,4.60
2023-06-18T23:58:30.311Z,4.60
